Time;durP1;ratioP1;P1;durP2;ratioP2;P2;SDS_P1;SDS_P2;PMS_P1;PMS_P2;Temp;Humidity;BMP_temperature;BMP_pressure;BME280_temperature;BME280_humidity;BME280_pressure;Samples;Min_cycle;Max_cycle;Signal;HPM_P1;HPM_P2
2023/12/18 00:00:17;;;;;;;1.95;1.83;;;;;;;6.64;100.00;102336.03;5034670;28;20280;-67
2023/12/18 00:02:46;;;;;;;1.45;0.80;;;;;;;6.60;100.00;102323.88;5032645;28;20535;-67
2023/12/18 00:05:15;;;;;;;0.90;0.60;;;;;;;6.51;100.00;102329.13;5023418;28;20221;-68
2023/12/18 00:07:44;;;;;;;3.55;1.10;;;;;;;6.62;100.00;102319.22;5022680;28;20186;-69
2023/12/18 00:10:13;;;;;;;2.70;1.55;;;;;;;6.64;100.00;102320.75;5035310;28;20201;-66
2023/12/18 00:12:42;;;;;;;4.93;1.48;;;;;;;6.48;100.00;102318.66;5034176;28;20193;-67
2023/12/18 00:15:12;;;;;;;3.75;1.25;;;;;;;6.74;100.00;102318.06;5019897;28;20221;-67
2023/12/18 00:17:41;;;;;;;5.45;1.48;;;;;;;6.76;100.00;102313.41;5020074;28;20200;-68
2023/12/18 00:20:11;;;;;;;2.20;1.00;;;;;;;6.72;100.00;102304.78;5028766;28;20185;-67
2023/12/18 00:22:40;;;;;;;1.55;1.45;;;;;;;6.78;100.00;102306.00;5026006;28;20198;-67
2023/12/18 00:25:09;;;;;;;1.20;1.00;;;;;;;6.85;100.00;102297.25;5016464;28;20213;-67
2023/12/18 00:27:38;;;;;;;1.40;1.00;;;;;;;6.90;100.00;102291.44;5026627;28;20189;-68
2023/12/18 00:30:11;;;;;;;3.17;2.28;;;;;;;6.92;100.00;102298.34;5029623;28;20681;-67
2023/12/18 00:32:40;;;;;;;1.52;1.42;;;;;;;6.99;100.00;102296.78;5020892;28;20197;-68
2023/12/18 00:35:10;;;;;;;2.03;1.17;;;;;;;7.05;100.00;102292.69;5025414;28;20231;-68
2023/12/18 00:37:39;;;;;;;0.90;0.50;;;;;;;7.16;100.00;102297.91;5024703;28;20186;-67
2023/12/18 00:40:09;;;;;;;1.55;1.30;;;;;;;7.18;100.00;102295.03;5021767;28;20637;-67
2023/12/18 00:42:38;;;;;;;3.78;1.35;;;;;;;7.20;100.00;102285.84;5031334;28;20252;-67
2023/12/18 00:45:08;;;;;;;2.50;1.40;;;;;;;7.38;100.00;102288.59;5025975;28;20214;-67
2023/12/18 00:47:38;;;;;;;1.52;0.98;;;;;;;7.40;100.00;102292.84;5022948;28;20203;-69
2023/12/18 00:50:09;;;;;;;2.95;1.52;;;;;;;7.52;100.00;102295.34;5028000;28;20581;-67
2023/12/18 00:52:38;;;;;;;2.38;0.95;;;;;;;7.59;100.00;102297.31;5025932;28;20189;-66
2023/12/18 00:55:08;;;;;;;1.48;1.15;;;;;;;7.59;100.00;102297.31;5027701;28;20291;-68
2023/12/18 00:57:37;;;;;;;5.28;1.98;;;;;;;7.50;100.00;102297.34;5031789;28;20190;-70
2023/12/18 01:00:08;;;;;;;2.40;1.75;;;;;;;7.63;100.00;102281.69;5019737;28;20208;-70
2023/12/18 01:02:38;;;;;;;1.38;1.15;;;;;;;7.62;100.00;102286.22;5019060;28;20615;-67
2023/12/18 01:05:08;;;;;;;1.65;1.30;;;;;;;7.71;100.00;102279.09;5023764;28;20218;-67
2023/12/18 01:07:37;;;;;;;1.55;0.70;;;;;;;7.52;100.00;102274.66;5026761;28;20197;-67
2023/12/18 01:10:07;;;;;;;2.20;1.70;;;;;;;7.52;100.00;102277.34;5031759;28;20194;-67
2023/12/18 01:12:36;;;;;;;2.08;1.20;;;;;;;7.58;100.00;102275.91;5039165;28;20190;-68
2023/12/18 01:15:06;;;;;;;5.47;2.17;;;;;;;7.52;100.00;102281.88;5039791;28;20624;-67
2023/12/18 01:17:35;;;;;;;1.75;1.25;;;;;;;7.42;100.00;102276.53;5033808;28;20564;-67
2023/12/18 01:20:08;;;;;;;2.20;1.00;;;;;;;7.45;100.00;102270.88;5032931;28;20203;-67
2023/12/18 01:22:36;;;;;;;1.20;1.02;;;;;;;7.47;100.00;102278.78;5031137;28;20202;-68
2023/12/18 01:25:06;;;;;;;2.25;0.93;;;;;;;7.43;100.00;102271.00;5025021;28;20589;-68
2023/12/18 01:27:35;;;;;;;1.98;1.77;;;;;;;7.38;100.00;102270.59;5025948;28;20205;-70
2023/12/18 01:30:04;;;;;;;1.73;1.27;;;;;;;7.34;100.00;102263.81;5034504;28;20205;-69
2023/12/18 01:32:34;;;;;;;1.67;0.90;;;;;;;7.25;100.00;102261.16;5028470;28;20562;-67
2023/12/18 01:35:03;;;;;;;2.60;1.60;;;;;;;7.32;100.00;102263.09;5028188;28;20622;-66
2023/12/18 01:37:33;;;;;;;1.52;0.80;;;;;;;7.35;100.00;102273.59;5024311;28;20247;-67
2023/12/18 01:40:03;;;;;;;2.25;2.08;;;;;;;7.34;100.00;102266.50;5030532;28;20626;-67
2023/12/18 01:42:32;;;;;;;1.65;1.40;;;;;;;7.39;100.00;102269.59;5020142;28;20201;-69
2023/12/18 01:45:01;;;;;;;1.65;1.05;;;;;;;7.40;100.00;102271.31;5026653;28;20614;-66
2023/12/18 01:47:30;;;;;;;3.95;1.48;;;;;;;7.45;100.00;102268.16;5029010;28;20190;-67
2023/12/18 01:49:59;;;;;;;1.33;1.23;;;;;;;7.48;100.00;102267.00;5028977;28;20202;-68
2023/12/18 01:52:28;;;;;;;1.90;1.30;;;;;;;7.43;100.00;102265.63;5033339;28;20279;-67
2023/12/18 01:54:58;;;;;;;1.20;1.05;;;;;;;7.42;100.00;102277.38;5032509;28;20568;-66
2023/12/18 01:57:28;;;;;;;1.88;1.65;;;;;;;7.47;100.00;102270.69;5028792;28;20194;-67
2023/12/18 01:59:57;;;;;;;0.90;0.50;;;;;;;7.32;100.00;102262.25;5019519;28;20197;-69
2023/12/18 02:02:26;;;;;;;3.22;1.33;;;;;;;7.42;100.00;102263.91;5022358;28;20201;-69
2023/12/18 02:04:56;;;;;;;1.63;1.40;;;;;;;7.47;100.00;102270.69;5030385;28;20501;-69
2023/12/18 02:07:27;;;;;;;2.00;1.35;;;;;;;7.50;100.00;102270.41;5026455;28;20657;-69
2023/12/18 02:09:58;;;;;;;1.77;1.10;;;;;;;7.51;100.00;102282.88;5025544;28;20193;-69
2023/12/18 02:12:27;;;;;;;4.40;2.95;;;;;;;7.47;100.00;102279.63;5028073;28;20190;-67
2023/12/18 02:14:57;;;;;;;1.23;0.70;;;;;;;7.50;100.00;102281.19;5033081;28;20308;-68
2023/12/18 02:17:25;;;;;;;2.83;2.47;;;;;;;7.37;100.00;102276.13;5033494;28;20213;-67
2023/12/18 02:23:56;;;;;;;1.20;1.00;;;;;;;7.42;100.00;102268.44;5017741;28;20173;-68
2023/12/18 02:26:24;;;;;;;2.17;1.40;;;;;;;7.40;100.00;102265.94;5028026;28;20213;-68
2023/12/18 02:28:53;;;;;;;2.58;2.05;;;;;;;7.41;100.00;102259.50;5020919;28;20217;-68
2023/12/18 02:31:23;;;;;;;2.95;2.15;;;;;;;7.49;100.00;102257.94;5028009;28;20248;-68
2023/12/18 02:33:51;;;;;;;3.92;1.75;;;;;;;7.47;100.00;102257.22;5027639;28;20559;-66
2023/12/18 02:36:20;;;;;;;1.80;1.17;;;;;;;7.50;100.00;102259.66;5038469;28;20299;-68
2023/12/18 02:38:49;;;;;;;2.67;2.10;;;;;;;7.43;100.00;102265.63;5027928;28;20205;-68
2023/12/18 02:41:19;;;;;;;6.65;1.65;;;;;;;7.46;100.00;102259.06;5025720;28;20541;-66
2023/12/18 02:43:48;;;;;;;3.17;2.20;;;;;;;7.47;100.00;102258.06;5034863;28;20217;-67
2023/12/18 02:46:17;;;;;;;5.35;2.88;;;;;;;7.51;100.00;102254.09;5043407;28;20553;-68
2023/12/18 02:48:46;;;;;;;2.55;2.35;;;;;;;7.55;100.00;102251.97;5037331;28;20193;-65
2023/12/18 02:51:15;;;;;;;5.30;2.15;;;;;;;7.49;100.00;102247.16;5032352;28;20224;-67
2023/12/18 02:53:44;;;;;;;2.42;2.03;;;;;;;7.53;100.00;102253.94;5030378;28;20209;-65
2023/12/18 02:56:14;;;;;;;2.05;1.30;;;;;;;7.45;100.00;102245.78;5032920;28;20548;-67
2023/12/18 02:58:44;;;;;;;5.25;2.05;;;;;;;7.46;100.00;102242.06;5020121;28;20224;-68
2023/12/18 03:01:13;;;;;;;3.40;3.10;;;;;;;7.46;100.00;102244.75;5024980;28;20612;-70
2023/12/18 03:03:41;;;;;;;3.88;1.73;;;;;;;7.44;100.00;102247.63;5034205;28;20205;-68
2023/12/18 03:06:10;;;;;;;3.33;3.03;;;;;;;7.40;100.00;102249.75;5025813;28;20209;-68
2023/12/18 03:08:39;;;;;;;3.60;3.40;;;;;;;7.43;100.00;102254.00;5033021;28;20196;-68
2023/12/18 03:11:08;;;;;;;3.75;2.90;;;;;;;7.42;100.00;102255.84;5029370;28;20189;-68
2023/12/18 03:13:37;;;;;;;3.65;3.13;;;;;;;7.48;100.00;102246.31;5033848;28;20244;-66
2023/12/18 03:16:08;;;;;;;3.88;2.92;;;;;;;7.46;100.00;102258.22;5015887;28;20783;-67
2023/12/18 03:18:37;;;;;;;2.80;2.22;;;;;;;7.46;100.00;102263.59;5030073;28;20689;-67
2023/12/18 03:21:10;;;;;;;3.08;2.50;;;;;;;7.42;100.00;102253.13;5022476;28;20244;-70
2023/12/18 03:23:39;;;;;;;4.18;3.13;;;;;;;7.52;100.00;102254.94;5039713;28;20212;-67
2023/12/18 03:26:08;;;;;;;2.53;2.33;;;;;;;7.47;100.00;102257.22;5022768;28;20615;-66
2023/12/18 03:28:37;;;;;;;2.63;2.40;;;;;;;7.43;100.00;102254.84;5043331;28;20201;-69
2023/12/18 03:31:07;;;;;;;3.17;2.80;;;;;;;7.50;100.00;102257.81;5035727;28;20240;-68
2023/12/18 03:33:36;;;;;;;8.25;4.63;;;;;;;7.55;100.00;102262.75;5027314;28;20560;-66
2023/12/18 03:36:06;;;;;;;3.72;3.42;;;;;;;7.55;100.00;102254.66;5028145;28;20592;-68
2023/12/18 03:38:35;;;;;;;4.85;3.53;;;;;;;7.54;100.00;102250.25;5034242;28;20197;-68
2023/12/18 03:41:03;;;;;;;6.20;2.47;;;;;;;7.54;100.00;102250.25;5029318;28;20190;-68
2023/12/18 03:43:32;;;;;;;4.45;3.22;;;;;;;7.51;100.00;102237.91;5023531;28;20224;-68
2023/12/18 03:46:01;;;;;;;4.35;3.47;;;;;;;7.51;100.00;102251.38;5031773;28;20618;-68
2023/12/18 03:48:31;;;;;;;9.05;4.35;;;;;;;7.52;100.00;102257.63;5031772;28;20189;-67
2023/12/18 03:51:00;;;;;;;3.90;2.95;;;;;;;7.49;100.00;102247.16;5038716;28;20625;-68
2023/12/18 03:53:29;;;;;;;2.83;2.30;;;;;;;7.42;100.00;102247.75;5028823;28;20573;-67
2023/12/18 03:55:58;;;;;;;2.75;1.25;;;;;;;7.49;100.00;102249.84;5032927;28;20592;-67
2023/12/18 03:58:27;;;;;;;3.42;2.60;;;;;;;7.55;100.00;102251.97;5028979;28;20199;-65
2023/12/18 04:00:56;;;;;;;3.00;1.58;;;;;;;7.55;100.00;102257.34;5025257;28;20708;-68
2023/12/18 04:03:25;;;;;;;5.07;1.88;;;;;;;7.50;100.00;102248.88;5017069;28;20649;-70
2023/12/18 04:05:55;;;;;;;4.60;4.20;;;;;;;7.52;100.00;102254.94;5024349;28;20723;-68
2023/12/18 04:08:24;;;;;;;2.80;2.42;;;;;;;7.52;100.00;102252.25;5028650;28;20201;-70
2023/12/18 04:10:52;;;;;;;3.78;3.08;;;;;;;7.54;100.00;102255.66;5038276;28;20193;-68
2023/12/18 04:13:21;;;;;;;5.07;4.75;;;;;;;7.43;100.00;102257.53;5032948;28;20242;-69
2023/12/18 04:15:51;;;;;;;2.70;2.50;;;;;;;7.49;100.00;102244.47;5041004;28;20213;-68
2023/12/18 04:18:20;;;;;;;4.25;3.90;;;;;;;7.50;100.00;102248.88;5026768;28;20220;-66
2023/12/18 04:20:48;;;;;;;2.72;2.08;;;;;;;7.45;100.00;102245.78;5023638;28;20788;-68
2023/12/18 04:23:19;;;;;;;20.38;3.90;;;;;;;7.46;100.00;102242.91;5039269;28;20224;-68
2023/12/18 04:25:48;;;;;;;4.10;3.33;;;;;;;7.48;100.00;102235.53;5025217;28;20225;-66
2023/12/18 04:28:16;;;;;;;3.45;3.08;;;;;;;7.51;100.00;102237.91;5019891;28;20194;-65
2023/12/18 04:30:45;;;;;;;2.97;2.53;;;;;;;7.52;100.00;102241.47;5034550;28;20194;-68
2023/12/18 04:33:14;;;;;;;9.07;4.82;;;;;;;7.53;100.00;102235.09;5036564;28;20181;-65
2023/12/18 04:35:43;;;;;;;4.25;3.47;;;;;;;7.56;100.00;102237.47;5019200;28;20217;-66
2023/12/18 04:38:12;;;;;;;4.38;4.03;;;;;;;7.50;100.00;102230.00;5033532;28;20240;-67
2023/12/18 04:40:42;;;;;;;5.22;2.70;;;;;;;7.56;100.00;102229.38;5018991;28;20201;-66
2023/12/18 04:43:11;;;;;;;4.80;3.67;;;;;;;7.59;100.00;102232.66;5014840;28;20206;-67
2023/12/18 04:45:40;;;;;;;3.25;2.10;;;;;;;7.51;100.00;102229.00;5024970;28;20221;-65
2023/12/18 04:48:09;;;;;;;2.30;1.90;;;;;;;7.52;100.00;102228.00;5013646;28;20200;-65
2023/12/18 04:50:38;;;;;;;3.53;3.08;;;;;;;7.49;100.00;102225.63;5028290;28;20252;-66
2023/12/18 04:53:07;;;;;;;2.90;2.70;;;;;;;7.41;100.00;102227.19;5030383;28;20201;-65
2023/12/18 04:55:36;;;;;;;3.17;2.92;;;;;;;7.42;100.00;102226.19;5025738;28;20710;-67
2023/12/18 04:58:06;;;;;;;4.22;2.47;;;;;;;7.40;100.00;102222.84;5034806;28;20655;-67
2023/12/18 05:00:35;;;;;;;3.97;3.05;;;;;;;7.48;100.00;102218.53;5038911;28;20219;-67
2023/12/18 05:03:04;;;;;;;4.40;2.83;;;;;;;7.39;100.00;102215.75;5032747;28;20233;-68
2023/12/18 05:05:33;;;;;;;6.22;5.72;;;;;;;7.40;100.00;102219.28;5028054;28;20221;-66
2023/12/18 05:08:02;;;;;;;4.10;3.72;;;;;;;7.44;100.00;102223.38;5031253;28;20182;-68
2023/12/18 05:10:30;;;;;;;5.97;4.03;;;;;;;7.34;100.00;102218.03;5038318;28;20225;-66
2023/12/18 05:12:59;;;;;;;12.02;4.30;;;;;;;7.35;100.00;102222.44;5023459;28;20189;-67
2023/12/18 05:15:29;;;;;;;4.63;3.13;;;;;;;7.38;100.00;102222.13;5032083;28;20244;-65
2023/12/18 05:17:58;;;;;;;8.77;4.72;;;;;;;7.32;100.00;102213.78;5030465;28;20242;-67
2023/12/18 05:20:27;;;;;;;4.82;4.00;;;;;;;7.30;100.00;102222.03;5044337;28;20189;-66
2023/12/18 05:22:56;;;;;;;3.38;3.05;;;;;;;7.33;100.00;102228.94;5029082;28;20683;-67
2023/12/18 05:25:25;;;;;;;3.30;2.95;;;;;;;7.39;100.00;102237.28;5027867;28;20214;-67
2023/12/18 05:27:55;;;;;;;10.07;4.82;;;;;;;7.36;100.00;102237.56;5033939;28;20702;-69
2023/12/18 05:30:23;;;;;;;3.10;2.80;;;;;;;7.42;100.00;102241.50;5038292;28;20211;-70
2023/12/18 05:32:54;;;;;;;4.75;3.95;;;;;;;7.50;100.00;102251.56;5034613;28;20280;-68
2023/12/18 05:35:23;;;;;;;6.10;5.60;;;;;;;7.36;100.00;102247.47;5032140;28;20221;-68
2023/12/18 05:37:52;;;;;;;5.28;4.60;;;;;;;7.38;100.00;102257.13;5035722;28;20247;-67
2023/12/18 05:40:20;;;;;;;3.22;3.00;;;;;;;7.34;100.00;102261.13;5040741;28;20618;-68
2023/12/18 05:42:50;;;;;;;3.88;3.45;;;;;;;7.32;100.00;102268.50;5025312;28;20190;-68
2023/12/18 05:45:18;;;;;;;5.97;5.15;;;;;;;7.30;100.00;102261.56;5040821;28;20213;-68
2023/12/18 05:47:47;;;;;;;6.07;3.50;;;;;;;7.31;100.00;102272.16;5034407;28;20181;-66
2023/12/18 05:50:18;;;;;;;6.28;5.30;;;;;;;7.27;100.00;102270.78;5043806;28;20206;-67
2023/12/18 05:52:47;;;;;;;2.72;2.42;;;;;;;7.28;100.00;102275.16;5027301;28;20657;-68
2023/12/18 05:55:16;;;;;;;4.25;3.63;;;;;;;7.30;100.00;102277.72;5034301;28;20221;-67
2023/12/18 05:57:45;;;;;;;12.38;4.22;;;;;;;7.31;100.00;102282.94;5026346;28;20733;-69
2023/12/18 06:00:15;;;;;;;9.07;4.88;;;;;;;7.35;100.00;102268.22;5021332;28;20606;-70
2023/12/18 06:02:44;;;;;;;8.18;3.35;;;;;;;7.30;100.00;102280.41;5030089;28;20661;-68
2023/12/18 06:05:13;;;;;;;4.07;2.28;;;;;;;7.35;100.00;102283.53;5031486;28;20320;-69
2023/12/18 06:07:44;;;;;;;5.57;4.35;;;;;;;7.33;100.00;102264.81;5025887;28;20194;-69
2023/12/18 06:10:12;;;;;;;2.95;2.10;;;;;;;7.29;100.00;102263.41;5029753;28;20665;-68
2023/12/18 06:12:41;;;;;;;6.13;2.00;;;;;;;7.39;100.00;102269.59;5040042;28;20243;-69
2023/12/18 06:15:11;;;;;;;4.60;4.05;;;;;;;7.38;100.00;102267.06;5033895;28;20212;-69
2023/12/18 06:17:40;;;;;;;3.08;2.80;;;;;;;7.35;100.00;102264.66;5037088;28;20193;-67
2023/12/18 06:20:09;;;;;;;3.20;2.95;;;;;;;7.38;100.00;102265.22;5029579;28;20227;-68
2023/12/18 06:22:38;;;;;;;4.38;3.25;;;;;;;7.37;100.00;102276.97;5033810;28;20208;-68
2023/12/18 06:25:09;;;;;;;5.40;4.93;;;;;;;7.26;100.00;102273.63;5032303;28;20221;-67
2023/12/18 06:27:39;;;;;;;3.85;2.63;;;;;;;7.33;100.00;102283.66;5022118;28;20360;-67
2023/12/18 06:30:09;;;;;;;4.10;2.78;;;;;;;7.31;100.00;102291.03;5021067;28;20281;-65
2023/12/18 06:32:38;;;;;;;5.20;4.00;;;;;;;7.34;100.00;102282.66;5026906;28;20197;-68
2023/12/18 06:35:08;;;;;;;3.20;2.85;;;;;;;7.35;100.00;102273.59;5025070;28;20292;-66
2023/12/18 06:37:38;;;;;;;3.13;2.60;;;;;;;7.35;100.00;102278.13;5024734;28;20197;-68
2023/12/18 06:40:09;;;;;;;6.20;4.25;;;;;;;7.39;100.00;102269.59;5036359;28;20194;-69
2023/12/18 06:42:38;;;;;;;4.20;2.33;;;;;;;7.39;100.00;102269.59;5036365;28;20219;-67
2023/12/18 06:45:09;;;;;;;6.35;3.50;;;;;;;7.46;100.00;102271.69;5020195;28;20217;-68
2023/12/18 06:47:38;;;;;;;4.13;3.10;;;;;;;7.26;100.00;102271.75;5028907;28;20565;-67
2023/12/18 06:50:25;;;;;;;4.15;3.03;;;;;;;7.37;100.00;102273.44;5031500;28;20215;-68
2023/12/18 06:52:54;;;;;;;5.30;3.35;;;;;;;7.37;100.00;102276.97;5016087;28;20213;-69
2023/12/18 06:55:24;;;;;;;6.63;2.90;;;;;;;7.37;100.00;102282.34;5032358;28;20279;-68
2023/12/18 06:57:53;;;;;;;3.38;3.08;;;;;;;7.33;100.00;102288.19;5026568;28;20204;-66
2023/12/18 07:00:22;;;;;;;4.22;2.88;;;;;;;7.35;100.00;102299.69;5025443;28;20325;-68
2023/12/18 07:03:08;;;;;;;3.85;2.58;;;;;;;7.40;100.00;102297.41;5023440;28;20221;-69
2023/12/18 07:05:37;;;;;;;3.60;3.17;;;;;;;7.37;100.00;102303.06;5028742;28;20245;-68
2023/12/18 07:08:07;;;;;;;4.65;3.95;;;;;;;7.46;100.00;102306.69;5027093;28;20353;-69
2023/12/18 07:10:37;;;;;;;3.38;3.08;;;;;;;7.49;100.00;102303.72;5024077;28;20277;-67
2023/12/18 07:13:05;;;;;;;3.65;2.72;;;;;;;7.42;100.00;102316.94;5022474;28;20662;-67
2023/12/18 07:15:34;;;;;;;5.57;5.20;;;;;;;7.33;100.00;102302.50;5026413;28;20217;-70
2023/12/18 07:18:04;;;;;;;4.10;3.70;;;;;;;7.34;100.00;102306.91;5029614;28;20658;-67
2023/12/18 07:20:33;;;;;;;5.10;3.50;;;;;;;7.33;100.00;102310.59;5030445;28;20236;-68
2023/12/18 07:23:01;;;;;;;5.47;4.60;;;;;;;7.34;100.00;102301.50;5031947;28;20230;-68
2023/12/18 07:25:30;;;;;;;6.72;3.67;;;;;;;7.42;100.00;102298.06;5024030;28;20221;-66
2023/12/18 07:28:00;;;;;;;3.72;3.42;;;;;;;7.38;100.00;102299.38;5021634;28;20197;-68
2023/12/18 07:30:29;;;;;;;4.07;2.22;;;;;;;7.44;100.00;102306.88;5019140;28;20198;-66
2023/12/18 07:32:58;;;;;;;3.90;2.47;;;;;;;7.35;100.00;102300.53;5034956;28;20200;-68
2023/12/18 07:35:27;;;;;;;4.38;2.42;;;;;;;7.36;100.00;102307.59;5025214;28;20259;-68
2023/12/18 07:37:56;;;;;;;5.93;5.32;;;;;;;7.47;100.00;102308.41;5032430;28;20673;-66
2023/12/18 07:40:25;;;;;;;4.68;3.50;;;;;;;7.43;100.00;102307.84;5029450;28;20692;-67
2023/12/18 07:42:54;;;;;;;3.30;3.00;;;;;;;7.44;100.00;102304.19;5025495;28;20193;-67
2023/12/18 07:45:24;;;;;;;5.63;5.10;;;;;;;7.52;99.68;102306.97;5021700;28;20225;-67
2023/12/18 07:47:53;;;;;;;4.82;2.85;;;;;;;7.56;99.54;102315.59;5021776;28;20920;-68
2023/12/18 07:50:22;;;;;;;4.30;3.80;;;;;;;7.58;99.52;102309.09;5028714;28;20193;-68
2023/12/18 07:52:51;;;;;;;2.67;2.45;;;;;;;7.46;99.69;102302.16;5029347;28;20677;-67
2023/12/18 07:55:20;;;;;;;7.03;3.10;;;;;;;7.55;99.49;102295.06;5021983;28;20630;-69
2023/12/18 07:57:49;;;;;;;4.38;3.28;;;;;;;7.54;99.37;102312.22;5033096;28;20202;-66
2023/12/18 08:00:18;;;;;;;3.83;3.10;;;;;;;7.50;99.45;102302.75;5033458;28;20198;-67
2023/12/18 08:02:49;;;;;;;5.07;3.55;;;;;;;7.58;99.64;102301.00;5025181;28;20194;-68
2023/12/18 08:05:18;;;;;;;2.92;2.60;;;;;;;7.66;98.68;102302.94;5025930;28;20213;-67
2023/12/18 08:07:47;;;;;;;5.35;4.10;;;;;;;7.77;98.24;102291.97;5034769;28;20193;-68
2023/12/18 08:10:16;;;;;;;2.88;2.65;;;;;;;7.81;97.52;102293.34;5029615;28;20216;-68
2023/12/18 08:12:45;;;;;;;6.97;3.10;;;;;;;7.91;97.82;102302.25;5027246;28;20560;-67
2023/12/18 08:15:14;;;;;;;5.15;2.92;;;;;;;7.93;96.32;102291.31;5033142;28;20205;-67
2023/12/18 08:17:43;;;;;;;2.97;2.70;;;;;;;8.07;96.75;102290.81;5017676;28;20768;-67
2023/12/18 08:20:15;;;;;;;3.40;2.58;;;;;;;8.19;96.01;102287.72;5019708;28;20194;-68
2023/12/18 08:22:44;;;;;;;4.03;3.05;;;;;;;8.11;95.76;102301.13;5024946;28;20258;-67
2023/12/18 08:25:13;;;;;;;2.80;2.60;;;;;;;8.04;96.21;102312.66;5029953;28;20218;-66
2023/12/18 08:27:42;;;;;;;2.20;1.77;;;;;;;7.96;96.65;102316.13;5030488;28;20185;-66
2023/12/18 08:30:12;;;;;;;2.40;2.20;;;;;;;7.81;97.30;102307.69;5031303;28;20198;-67
2023/12/18 08:32:41;;;;;;;3.70;3.35;;;;;;;7.91;97.40;102304.94;5029570;28;20189;-67
2023/12/18 08:35:10;;;;;;;4.68;2.50;;;;;;;7.88;97.20;102313.34;5028313;28;20226;-68
2023/12/18 08:37:40;;;;;;;3.95;3.58;;;;;;;7.89;97.21;102309.63;5031706;28;20251;-68
2023/12/18 08:40:11;;;;;;;4.57;3.17;;;;;;;7.90;97.03;102305.94;5028216;28;20212;-67
2023/12/18 08:42:40;;;;;;;3.10;2.80;;;;;;;7.78;97.40;102307.16;5025477;28;20200;-68
2023/12/18 08:45:10;;;;;;;3.78;2.50;;;;;;;7.82;97.83;102292.38;5022181;28;20217;-69
2023/12/18 08:47:39;;;;;;;3.65;3.35;;;;;;;7.80;97.95;102305.97;5033045;28;20197;-68
2023/12/18 08:50:24;;;;;;;6.57;3.60;;;;;;;7.70;98.45;102291.69;5027601;28;20201;-68
2023/12/18 08:52:54;;;;;;;7.72;4.10;;;;;;;7.80;98.13;102294.34;5037625;28;20844;-67
2023/12/18 08:55:23;;;;;;;2.53;2.00;;;;;;;7.84;97.75;102293.91;5036034;28;20221;-66
2023/12/18 08:57:52;;;;;;;5.03;3.35;;;;;;;7.85;97.88;102292.06;5031894;28;20224;-68
2023/12/18 09:00:22;;;;;;;6.47;4.35;;;;;;;7.84;97.83;102296.59;5036852;28;20221;-67
2023/12/18 09:02:51;;;;;;;3.50;3.30;;;;;;;7.71;99.18;102289.88;5024139;28;20196;-67
2023/12/18 09:05:20;;;;;;;3.50;3.20;;;;;;;7.70;99.76;102293.53;5026236;28;20663;-66
2023/12/18 09:07:49;;;;;;;3.95;3.38;;;;;;;7.71;100.00;102296.09;5029449;28;20198;-66
2023/12/18 09:10:22;;;;;;;3.33;3.08;;;;;;;7.64;100.00;102294.16;5027447;28;20201;-68
2023/12/18 09:12:52;;;;;;;2.25;2.05;;;;;;;7.58;100.00;102290.22;5029009;28;20193;-68
2023/12/18 09:15:23;;;;;;;5.32;4.82;;;;;;;7.73;100.00;102299.50;5038476;28;20218;-68
2023/12/18 09:17:52;;;;;;;3.97;3.67;;;;;;;7.72;100.00;102311.28;5030708;28;20674;-68
2023/12/18 09:20:20;;;;;;;2.35;2.00;;;;;;;7.65;100.00;102295.88;5027663;28;20719;-67
2023/12/18 09:22:51;;;;;;;5.13;3.53;;;;;;;7.70;100.00;102296.25;5031141;28;20248;-70
2023/12/18 09:25:21;;;;;;;3.08;2.88;;;;;;;7.67;100.00;102285.78;5026515;28;20209;-68
2023/12/18 09:27:50;;;;;;;10.88;3.80;;;;;;;7.78;99.91;102280.19;5031793;28;20189;-68
2023/12/18 09:30:19;;;;;;;3.35;2.42;;;;;;;7.84;99.27;102279.59;5032906;28;20247;-68
2023/12/18 09:32:48;;;;;;;2.80;2.58;;;;;;;7.82;99.24;102287.81;5032078;28;20193;-68
2023/12/18 09:35:17;;;;;;;1.88;1.77;;;;;;;7.72;99.19;102276.25;5028994;28;20210;-69
2023/12/18 09:37:46;;;;;;;4.75;3.80;;;;;;;7.80;98.99;102275.47;5030461;28;20212;-69
2023/12/18 09:40:15;;;;;;;4.57;3.00;;;;;;;7.90;98.56;102288.91;5041340;28;20689;-67
2023/12/18 09:42:53;;;;;;;2.67;2.47;;;;;;;7.84;99.02;102287.69;5031129;28;20276;-68
2023/12/18 09:45:23;;;;;;;4.50;3.75;;;;;;;8.01;98.24;102294.09;5031966;28;20308;-65
2023/12/18 09:47:53;;;;;;;4.72;3.03;;;;;;;7.95;97.74;102287.47;5031123;28;20561;-69
2023/12/18 09:50:22;;;;;;;5.55;3.38;;;;;;;7.89;98.63;102288.06;5030467;28;20193;-68
2023/12/18 09:53:00;;;;;;;4.65;3.58;;;;;;;7.88;98.36;102294.47;5033312;28;20549;-68
2023/12/18 09:55:29;;;;;;;4.25;2.30;;;;;;;7.79;98.51;102282.72;5029197;28;20609;-69
2023/12/18 09:58:01;;;;;;;3.60;2.55;;;;;;;7.76;99.29;102269.56;5032838;28;20185;-67
2023/12/18 10:00:31;;;;;;;4.00;3.70;;;;;;;7.88;98.68;102272.91;5028989;28;20213;-69
2023/12/18 10:03:01;;;;;;;4.57;2.92;;;;;;;7.81;98.29;102261.88;5029819;28;20227;-67
2023/12/18 10:05:30;;;;;;;4.82;2.75;;;;;;;7.83;98.50;102273.34;5042799;28;20247;-67
2023/12/18 10:08:01;;;;;;;4.82;3.95;;;;;;;7.80;98.25;102283.56;5042225;28;20189;-68
2023/12/18 10:10:30;;;;;;;4.47;3.50;;;;;;;7.79;98.54;102284.59;5043759;28;20186;-68
2023/12/18 10:13:03;;;;;;;5.10;4.60;;;;;;;7.75;99.44;102285.88;5025794;28;20190;-72
2023/12/18 10:15:33;;;;;;;4.90;3.88;;;;;;;7.93;98.73;102280.53;5033427;28;20214;-67
2023/12/18 10:18:03;;;;;;;4.40;2.92;;;;;;;7.79;98.69;102288.09;5033166;28;20200;-67
2023/12/18 10:20:34;;;;;;;3.33;2.42;;;;;;;7.93;98.24;102276.00;5029328;28;20204;-68
2023/12/18 10:23:04;;;;;;;2.88;2.30;;;;;;;8.04;97.64;102277.59;5038861;28;20203;-69
2023/12/18 10:25:35;;;;;;;4.97;4.15;;;;;;;8.09;97.04;102268.06;5033009;28;20221;-71
2023/12/18 10:28:07;;;;;;;3.90;2.75;;;;;;;7.97;97.13;102277.38;5032426;28;20224;-69
2023/12/18 10:30:36;;;;;;;4.20;3.80;;;;;;;7.99;97.77;102272.66;5028215;28;20216;-69
2023/12/18 10:33:09;;;;;;;5.47;3.78;;;;;;;8.05;97.12;102268.53;5035903;28;20456;-69
2023/12/18 10:35:41;;;;;;;4.70;2.17;;;;;;;8.11;97.01;102255.28;5017487;28;20565;-69
2023/12/18 10:38:10;;;;;;;3.60;3.25;;;;;;;8.20;96.33;102253.50;5033390;28;20233;-69
2023/12/18 10:40:40;;;;;;;2.78;2.13;;;;;;;8.00;97.07;102246.56;5020376;28;20208;-69
2023/12/18 10:43:21;;;;;;;7.90;4.22;;;;;;;7.97;97.20;102252.28;5030055;28;20193;-68
2023/12/18 10:45:52;;;;;;;6.03;5.50;;;;;;;7.94;97.46;102249.88;5030510;28;20306;-67
2023/12/18 10:48:22;;;;;;;3.13;2.80;;;;;;;8.09;98.17;102246.50;5027753;28;20670;-68
2023/12/18 10:50:55;;;;;;;4.45;4.15;;;;;;;8.16;97.14;102247.59;5020344;28;20542;-69
2023/12/18 10:53:25;;;;;;;3.33;2.78;;;;;;;8.18;96.78;102244.75;5028670;28;20209;-70
2023/12/18 10:55:57;;;;;;;5.25;4.82;;;;;;;8.19;95.92;102241.88;5021833;28;20210;-68
2023/12/18 10:58:27;;;;;;;3.47;3.17;;;;;;;7.97;96.32;102236.09;5033989;28;20200;-70
2023/12/18 11:00:59;;;;;;;4.00;3.70;;;;;;;7.88;96.81;102237.00;5031236;28;20212;-69
2023/12/18 11:03:29;;;;;;;4.80;4.32;;;;;;;8.02;97.27;102252.66;5026138;28;20194;-68
2023/12/18 11:05:59;;;;;;;3.58;2.25;;;;;;;8.07;96.76;102253.91;5028900;28;20200;-65
2023/12/18 11:08:28;;;;;;;1.63;1.52;;;;;;;8.04;96.70;102254.19;5029340;28;20185;-67
2023/12/18 11:10:58;;;;;;;4.22;2.90;;;;;;;8.21;96.56;102256.06;5027235;28;20205;-68
2023/12/18 11:13:30;;;;;;;2.30;2.10;;;;;;;8.11;96.65;102249.91;5028428;28;20197;-69
2023/12/18 11:16:13;;;;;;;7.22;2.92;;;;;;;8.04;96.17;102254.19;5029357;28;20682;-68
2023/12/18 11:18:59;;;;;;;6.90;4.00;;;;;;;8.12;96.32;102251.59;5038462;28;20194;-68
2023/12/18 11:21:43;;;;;;;4.07;3.53;;;;;;;7.99;96.07;102234.94;5025874;28;20687;-70
2023/12/18 11:24:12;;;;;;;5.03;3.72;;;;;;;8.15;96.38;102239.66;5030494;28;20263;-68
2023/12/18 11:26:44;;;;;;;3.42;2.40;;;;;;;8.09;95.43;102238.41;5029301;28;20216;-69
2023/12/18 11:29:39;;;;;;;2.80;2.40;;;;;;;8.20;95.54;102231.94;5022004;28;20201;-69
2023/12/18 11:32:10;;;;;;;4.05;2.58;;;;;;;8.03;95.45;102230.09;5028625;28;20197;-69
2023/12/18 11:34:41;;;;;;;4.95;2.97;;;;;;;8.06;95.66;102233.34;5021803;28;20264;-68
2023/12/18 11:37:13;;;;;;;3.55;2.90;;;;;;;8.04;95.24;102234.47;5031654;28;20669;-68
2023/12/18 11:39:48;;;;;;;4.40;3.40;;;;;;;8.10;95.34;102226.63;5024524;28;20689;-68
2023/12/18 11:42:46;;;;;;;5.32;4.03;;;;;;;8.23;94.69;102243.25;5031657;28;20201;-67